createdAt,value
2022-08-27T00:02:35.551Z,8.43
2022-08-27T00:07:37.675Z,7.55
2022-08-27T00:12:37.813Z,8.90
2022-08-27T00:17:36.605Z,8.02
2022-08-27T00:22:37.995Z,9.40
2022-08-27T00:27:43.177Z,9.75
2022-08-27T00:32:43.074Z,8.57
2022-08-27T00:37:41.881Z,8.32
2022-08-27T00:42:42.627Z,9.90
2022-08-27T00:47:50.642Z,7.65
2022-08-27T00:52:55.767Z,7.82
2022-08-27T00:58:24.302Z,8.80
2022-08-27T01:03:23.061Z,6.22
2022-08-27T01:08:23.908Z,7.40
2022-08-27T01:13:54.434Z,7.43
2022-08-27T01:18:46.755Z,6.55
2022-08-27T01:24:23.193Z,7.97
2022-08-27T01:29:24.700Z,7.00
2022-08-27T01:34:27.626Z,7.45
2022-08-27T01:39:27.224Z,7.70
2022-08-27T01:44:31.376Z,7.55
2022-08-27T01:49:31.472Z,6.72
2022-08-27T01:54:31.834Z,8.50
2022-08-27T01:59:39.383Z,8.02
2022-08-27T02:04:40.352Z,7.75
2022-08-27T02:09:43.246Z,7.57
2022-08-27T02:14:44.765Z,6.93
2022-08-27T02:19:45.525Z,8.95
2022-08-27T02:24:44.888Z,7.90
2022-08-27T02:29:44.030Z,6.55
2022-08-27T02:34:44.749Z,8.48
2022-08-27T02:39:46.711Z,6.95
2022-08-27T02:44:45.333Z,6.60
2022-08-27T02:49:48.112Z,6.57
2022-08-27T02:54:52.406Z,6.97
2022-08-27T02:59:53.812Z,7.38
2022-08-27T03:04:54.845Z,8.20
2022-08-27T03:09:57.077Z,8.32
2022-08-27T03:14:56.606Z,7.47
2022-08-27T03:19:55.733Z,7.65
2022-08-27T03:24:56.713Z,8.32
2022-08-27T03:29:59.585Z,8.45
2022-08-27T03:35:03.232Z,7.57
2022-08-27T03:40:06.046Z,7.47
2022-08-27T03:45:06.021Z,8.00
2022-08-27T03:50:11.731Z,8.00
2022-08-27T03:55:15.493Z,8.38
2022-08-27T04:00:14.485Z,8.18
2022-08-27T04:05:23.523Z,8.68
2022-08-27T04:10:24.901Z,8.43
2022-08-27T04:15:29.017Z,7.55
2022-08-27T04:20:48.456Z,7.93
2022-08-27T04:25:50.689Z,7.72
2022-08-27T04:30:52.506Z,9.18
2022-08-27T04:36:11.183Z,8.27
2022-08-27T04:41:35.223Z,8.07
2022-08-27T04:46:37.928Z,7.22
2022-08-27T04:51:37.065Z,8.00
2022-08-27T04:56:44.672Z,6.72
2022-08-27T05:01:44.936Z,8.15
2022-08-27T05:06:46.195Z,8.90
2022-08-27T05:11:47.174Z,9.23
2022-08-27T05:16:47.804Z,7.72
2022-08-27T05:21:53.541Z,6.18
2022-08-27T05:26:53.864Z,5.60
2022-08-27T05:31:59.823Z,6.70
2022-08-27T05:37:00.945Z,6.22
2022-08-27T05:42:00.338Z,7.55
2022-08-27T05:47:02.188Z,9.70
2022-08-27T05:52:07.925Z,11.90
2022-08-27T05:57:12.736Z,11.90
2022-08-27T06:02:11.909Z,10.70
2022-08-27T06:07:11.097Z,9.35
2022-08-27T06:12:09.855Z,10.43
2022-08-27T06:17:11.292Z,9.80
2022-08-27T06:22:10.944Z,7.50
2022-08-27T06:27:15.272Z,7.40
2022-08-27T06:32:15.550Z,7.55
2022-08-27T06:37:13.409Z,8.07
2022-08-27T06:42:13.366Z,7.60
2022-08-27T06:47:12.441Z,8.90
2022-08-27T06:52:11.693Z,7.63
2022-08-27T06:57:11.005Z,8.07
2022-08-27T07:02:09.581Z,8.52
2022-08-27T07:07:08.823Z,7.70
2022-08-27T07:12:07.379Z,8.65
2022-08-27T07:17:10.881Z,8.48
2022-08-27T07:22:15.684Z,7.95
2022-08-27T07:27:14.506Z,6.82
2022-08-27T07:32:13.070Z,7.30
2022-08-27T07:37:14.753Z,10.40
2022-08-27T07:42:33.079Z,8.75
2022-08-27T07:47:32.192Z,7.85
2022-08-27T07:52:34.599Z,7.88
2022-08-27T07:57:36.345Z,7.93
2022-08-27T08:02:36.247Z,8.35
2022-08-27T08:07:35.383Z,9.07
2022-08-27T08:12:36.165Z,7.65
2022-08-27T08:17:35.969Z,8.48
2022-08-27T08:22:35.287Z,8.90
2022-08-27T08:27:36.083Z,7.80
2022-08-27T08:32:37.657Z,8.10
2022-08-27T08:37:36.417Z,7.78
2022-08-27T08:42:50.576Z,8.30
2022-08-27T08:47:52.817Z,8.13
2022-08-27T08:52:56.166Z,7.35
2022-08-27T08:58:00.466Z,8.05
2022-08-27T09:02:59.414Z,6.78
2022-08-27T09:08:21.777Z,7.32
2022-08-27T09:13:28.843Z,6.10
2022-08-27T09:18:28.143Z,6.95
2022-08-27T09:23:34.085Z,6.28
2022-08-27T09:29:00.964Z,5.30
2022-08-27T09:34:00.264Z,8.90
2022-08-27T09:39:02.669Z,6.93
2022-08-27T09:44:03.912Z,7.68
2022-08-27T09:49:13.010Z,7.65
2022-08-27T09:54:11.899Z,6.78
2022-08-27T09:59:41.729Z,7.07
2022-08-27T10:04:50.363Z,6.28
2022-08-27T10:10:11.202Z,7.13
2022-08-27T10:15:09.831Z,7.45
2022-08-27T10:20:32.953Z,8.35
2022-08-27T10:25:59.073Z,7.90
2022-08-27T10:31:26.357Z,8.80
2022-08-27T10:36:38.179Z,7.30
2022-08-27T10:41:47.536Z,7.70
2022-08-27T10:47:07.244Z,7.75
2022-08-27T10:52:13.091Z,7.60
2022-08-27T10:57:54.289Z,9.00
2022-08-27T11:03:08.424Z,8.57
2022-08-27T11:08:19.313Z,8.70
2022-08-27T11:13:33.996Z,8.45
2022-08-27T11:18:44.617Z,8.90
2022-08-27T11:23:54.030Z,8.70
2022-08-27T11:29:03.015Z,9.70
2022-08-27T11:34:55.680Z,8.85
2022-08-27T11:39:59.286Z,8.60
2022-08-27T11:45:07.964Z,8.40
2022-08-27T11:50:23.955Z,8.88
2022-08-27T11:55:24.276Z,12.02
2022-08-27T12:00:29.500Z,9.05
2022-08-27T12:06:06.241Z,8.73
2022-08-27T12:11:31.834Z,8.90
2022-08-27T12:16:44.983Z,8.88
2022-08-27T12:21:50.802Z,8.88
2022-08-27T12:27:01.753Z,9.25
2022-08-27T12:32:25.156Z,9.35
2022-08-27T12:37:57.641Z,8.98
2022-08-27T12:43:29.762Z,9.10
2022-08-27T12:48:36.392Z,9.82
2022-08-27T12:53:55.018Z,10.07
2022-08-27T12:59:01.004Z,8.68
2022-08-27T13:04:11.609Z,9.07
2022-08-27T13:09:14.588Z,9.45
2022-08-27T13:14:17.217Z,11.32
2022-08-27T13:19:38.849Z,10.00
2022-08-27T13:24:56.828Z,7.33
2022-08-27T13:30:01.995Z,9.00
2022-08-27T13:35:01.316Z,8.70
2022-08-27T13:40:00.560Z,8.73
2022-08-27T13:45:05.615Z,9.43
2022-08-27T13:50:24.771Z,10.73
2022-08-27T13:55:24.006Z,9.60
2022-08-27T14:00:34.973Z,9.18
2022-08-27T14:05:41.912Z,9.45
2022-08-27T14:10:45.483Z,8.73
2022-08-27T14:15:51.852Z,8.70
2022-08-27T14:20:51.497Z,9.30
2022-08-27T14:25:50.642Z,9.15
2022-08-27T14:30:53.183Z,8.05
2022-08-27T14:35:55.107Z,8.25
2022-08-27T14:40:54.695Z,9.35
2022-08-27T14:45:55.311Z,8.13
2022-08-27T14:50:58.351Z,8.43
2022-08-27T14:55:59.170Z,8.95
2022-08-27T15:01:02.014Z,8.52
2022-08-27T15:06:04.068Z,8.80
2022-08-27T15:11:03.739Z,9.23
2022-08-27T15:16:06.864Z,8.10
2022-08-27T15:21:08.178Z,9.60
2022-08-27T15:26:10.363Z,8.25
2022-08-27T15:31:11.404Z,9.13
2022-08-27T15:36:09.929Z,8.02
2022-08-27T15:41:10.480Z,9.25
2022-08-27T15:46:13.109Z,9.30
2022-08-27T15:51:14.591Z,10.10
2022-08-27T15:56:17.978Z,11.50
2022-08-27T16:01:26.613Z,15.15
2022-08-27T16:06:24.446Z,9.50
2022-08-27T16:11:23.863Z,9.35
2022-08-27T16:16:25.659Z,9.73
2022-08-27T16:21:24.164Z,10.13
2022-08-27T16:26:26.148Z,10.13
2022-08-27T16:31:24.782Z,12.47
2022-08-27T16:36:23.836Z,11.07
2022-08-27T16:41:23.439Z,11.93
2022-08-27T16:46:21.051Z,10.57
2022-08-27T16:51:27.824Z,9.45
2022-08-27T16:56:28.383Z,9.27
2022-08-27T17:01:28.462Z,11.00
2022-08-27T17:06:27.586Z,11.30
2022-08-27T17:11:29.202Z,11.57
2022-08-27T17:16:33.829Z,12.82
2022-08-27T17:21:35.017Z,12.20
2022-08-27T17:26:38.874Z,14.63
2022-08-27T17:31:47.708Z,12.52
2022-08-27T17:36:56.625Z,14.15
2022-08-27T17:41:56.246Z,14.23
2022-08-27T17:47:07.380Z,11.35
2022-08-27T17:52:21.116Z,13.20
2022-08-27T17:57:37.415Z,13.57
2022-08-27T18:02:53.327Z,13.20
2022-08-27T18:13:45.628Z,16.33
2022-08-27T18:18:57.324Z,17.10
2022-08-27T18:29:38.776Z,9.05
2022-08-27T18:34:47.759Z,9.85
2022-08-27T18:40:16.259Z,13.00
2022-08-27T18:45:31.529Z,16.50
2022-08-27T18:50:37.406Z,18.10
2022-08-27T18:55:46.609Z,20.35
2022-08-27T19:01:11.800Z,10.40
2022-08-27T19:06:13.716Z,11.32
2022-08-27T19:11:22.068Z,11.63
2022-08-27T19:16:34.697Z,13.20
2022-08-27T19:21:41.235Z,10.77
2022-08-27T19:26:41.068Z,11.05
2022-08-27T19:31:49.725Z,13.10
2022-08-27T19:36:48.048Z,11.23
2022-08-27T19:41:47.375Z,12.85
2022-08-27T19:46:46.053Z,12.85
2022-08-27T19:51:44.269Z,13.65
2022-08-27T19:56:42.971Z,13.18
2022-08-27T20:01:46.899Z,11.23
2022-08-27T20:06:46.730Z,12.00
2022-08-27T20:11:51.336Z,10.77
2022-08-27T20:16:49.674Z,11.95
2022-08-27T20:21:48.286Z,10.32
2022-08-27T20:26:46.808Z,9.57
2022-08-27T20:31:44.662Z,10.93
2022-08-27T20:36:45.352Z,11.25
2022-08-27T20:41:46.379Z,11.52
2022-08-27T20:46:51.035Z,12.07
2022-08-27T20:52:02.238Z,12.25
2022-08-27T20:57:03.041Z,10.77
2022-08-27T21:02:07.194Z,10.63
2022-08-27T21:07:06.711Z,10.85
2022-08-27T21:12:04.573Z,9.00
2022-08-27T21:17:03.809Z,9.05
2022-08-27T21:27:06.296Z,7.95
2022-08-27T21:32:07.560Z,8.00
2022-08-27T21:37:06.037Z,8.95
2022-08-27T21:42:04.222Z,8.85
2022-08-27T21:47:04.758Z,7.63
2022-08-27T21:52:04.882Z,9.40
2022-08-27T21:57:04.515Z,9.35
2022-08-27T22:02:05.182Z,9.13
2022-08-27T22:07:13.432Z,9.02
2022-08-27T22:12:12.211Z,8.02
2022-08-27T22:17:15.956Z,8.13
2022-08-27T22:22:14.821Z,7.88
2022-08-27T22:27:13.835Z,8.70
2022-08-27T22:32:12.405Z,7.47
2022-08-27T22:37:10.932Z,9.32
2022-08-27T22:42:09.380Z,8.10
2022-08-27T22:47:12.242Z,9.17
2022-08-27T22:52:10.824Z,8.18
2022-08-27T22:57:10.634Z,9.27
2022-08-27T23:02:10.619Z,8.27
2022-08-27T23:07:09.199Z,6.78
2022-08-27T23:12:09.374Z,8.13
2022-08-27T23:17:07.650Z,8.63
2022-08-27T23:22:06.602Z,9.02
2022-08-27T23:27:25.020Z,6.93
2022-08-27T23:32:23.723Z,8.40
2022-08-27T23:37:24.075Z,8.40
2022-08-27T23:42:21.918Z,7.28
2022-08-27T23:47:20.212Z,7.85
2022-08-27T23:52:18.428Z,7.43
2022-08-27T23:57:16.608Z,6.95
